createdAt,value
2023-01-15T00:02:28.837Z,12.56
2023-01-15T00:04:56.536Z,12.52
2023-01-15T00:07:24.321Z,12.39
2023-01-15T00:09:52.705Z,11.90
2023-01-15T00:12:22.883Z,12.21
2023-01-15T00:14:51.504Z,12.07
2023-01-15T00:17:19.172Z,12.02
2023-01-15T00:19:48.956Z,12.01
2023-01-15T00:22:16.723Z,12.05
2023-01-15T00:25:03.181Z,12.02
2023-01-15T00:27:40.151Z,11.94
2023-01-15T00:30:09.166Z,11.94
2023-01-15T00:32:37.056Z,11.88
2023-01-15T00:35:07.099Z,11.92
2023-01-15T00:37:34.808Z,11.92
2023-01-15T00:40:02.445Z,11.92
2023-01-15T00:42:30.237Z,11.91
2023-01-15T00:44:57.821Z,11.90
2023-01-15T00:47:27.518Z,11.84
2023-01-15T00:49:55.096Z,11.80
2023-01-15T00:52:24.146Z,11.65
2023-01-15T00:54:53.998Z,11.64
2023-01-15T00:57:22.039Z,11.60
2023-01-15T00:59:49.662Z,11.60
2023-01-15T01:02:17.469Z,11.64
2023-01-15T01:04:45.205Z,11.63
2023-01-15T01:07:15.172Z,11.60
2023-01-15T01:09:44.211Z,11.55
2023-01-15T01:12:23.639Z,11.58
2023-01-15T01:14:51.384Z,11.58
2023-01-15T01:17:19.111Z,11.49
2023-01-15T01:19:46.717Z,11.37
2023-01-15T01:22:14.387Z,11.46
2023-01-15T01:24:41.996Z,11.42
2023-01-15T01:27:11.178Z,11.41
2023-01-15T01:29:38.928Z,11.34
2023-01-15T01:32:06.901Z,11.24
2023-01-15T01:34:34.624Z,11.27
2023-01-15T01:37:23.480Z,11.25
2023-01-15T01:39:51.205Z,11.20
2023-01-15T01:42:23.350Z,11.24
2023-01-15T01:45:24.837Z,11.22
2023-01-15T01:47:52.901Z,11.12
2023-01-15T01:50:20.795Z,11.17
2023-01-15T01:52:50.050Z,11.19
2023-01-15T01:55:18.142Z,11.14
2023-01-15T01:57:47.327Z,11.16
2023-01-15T02:00:15.458Z,11.14
2023-01-15T02:02:45.185Z,11.18
2023-01-15T02:05:14.769Z,11.14
2023-01-15T02:07:42.649Z,11.15
2023-01-15T02:10:15.443Z,11.01
2023-01-15T02:12:43.012Z,11.09
2023-01-15T02:15:14.736Z,11.08
2023-01-15T02:17:45.172Z,10.88
2023-01-15T02:20:25.607Z,11.02
2023-01-15T02:23:05.002Z,11.01
2023-01-15T02:25:34.737Z,11.06
2023-01-15T02:28:06.833Z,10.99
2023-01-15T02:30:35.417Z,11.06
2023-01-15T02:33:06.116Z,11.04
2023-01-15T02:35:35.919Z,10.81
2023-01-15T02:38:05.392Z,10.91
2023-01-15T02:40:32.960Z,11.04
2023-01-15T02:43:00.628Z,11.01
2023-01-15T02:45:30.458Z,10.96
2023-01-15T02:48:01.943Z,10.95
2023-01-15T02:50:31.441Z,10.98
2023-01-15T02:53:00.688Z,10.82
2023-01-15T02:55:29.544Z,10.93
2023-01-15T02:57:59.053Z,10.98
2023-01-15T03:00:26.771Z,11.00
2023-01-15T03:02:59.263Z,10.94
2023-01-15T03:05:28.258Z,10.97
2023-01-15T03:07:56.301Z,10.80
2023-01-15T03:10:24.180Z,10.67
2023-01-15T03:13:03.099Z,10.97
2023-01-15T03:15:54.640Z,10.72
2023-01-15T03:18:26.667Z,10.90
2023-01-15T03:20:55.568Z,10.84
2023-01-15T03:23:24.628Z,10.77
2023-01-15T03:25:52.381Z,10.82
2023-01-15T03:28:22.249Z,10.82
2023-01-15T03:30:49.920Z,10.74
2023-01-15T03:33:17.585Z,10.70
2023-01-15T03:35:48.659Z,10.67
2023-01-15T03:38:18.741Z,10.68
2023-01-15T03:40:51.178Z,10.66
2023-01-15T03:43:36.331Z,10.56
2023-01-15T03:46:06.870Z,10.68
2023-01-15T03:48:36.095Z,10.64
2023-01-15T03:51:06.470Z,10.46
2023-01-15T03:53:35.131Z,10.65
2023-01-15T03:56:04.636Z,10.62
2023-01-15T03:58:36.394Z,10.63
2023-01-15T04:01:04.649Z,10.36
2023-01-15T04:03:34.562Z,10.62
2023-01-15T04:06:02.509Z,10.62
2023-01-15T04:08:32.599Z,10.33
2023-01-15T04:11:01.220Z,10.62
2023-01-15T04:13:31.256Z,10.63
2023-01-15T04:15:59.340Z,10.63
2023-01-15T04:18:27.145Z,10.63
2023-01-15T04:20:55.646Z,10.62
2023-01-15T04:23:23.461Z,10.63
2023-01-15T04:25:52.443Z,10.60
2023-01-15T04:28:19.988Z,10.53
2023-01-15T04:30:47.699Z,10.63
2023-01-15T04:33:15.521Z,10.61
2023-01-15T04:35:43.210Z,10.62
2023-01-15T04:38:10.848Z,10.61
2023-01-15T04:40:55.919Z,10.60
2023-01-15T04:43:42.681Z,10.62
2023-01-15T04:46:10.328Z,10.62
2023-01-15T04:48:39.760Z,10.14
2023-01-15T04:51:07.928Z,10.60
2023-01-15T04:53:35.598Z,10.60
2023-01-15T04:56:03.652Z,10.61
2023-01-15T04:58:32.690Z,10.40
2023-01-15T05:01:00.819Z,10.63
2023-01-15T05:03:29.524Z,10.53
2023-01-15T05:05:57.090Z,10.62
2023-01-15T05:08:24.724Z,10.66
2023-01-15T05:10:52.439Z,10.27
2023-01-15T05:13:20.072Z,10.68
2023-01-15T05:15:49.329Z,10.67
2023-01-15T05:18:16.874Z,10.66
2023-01-15T05:20:44.532Z,10.68
2023-01-15T05:23:12.111Z,10.73
2023-01-15T05:25:39.738Z,10.68
2023-01-15T05:28:07.393Z,10.70
2023-01-15T05:30:36.617Z,10.73
2023-01-15T05:33:05.541Z,10.73
2023-01-15T05:35:33.213Z,10.74
2023-01-15T05:38:00.745Z,10.76
2023-01-15T05:40:28.408Z,10.76
2023-01-15T05:42:55.929Z,10.78
2023-01-15T05:45:23.553Z,10.81
2023-01-15T05:47:52.588Z,10.77
2023-01-15T05:50:21.629Z,10.78
2023-01-15T05:52:49.178Z,10.82
2023-01-15T05:55:17.083Z,10.81
2023-01-15T05:57:44.653Z,10.81
2023-01-15T06:00:13.760Z,10.78
2023-01-15T06:02:41.378Z,10.79
2023-01-15T06:05:09.807Z,10.74
2023-01-15T06:07:38.785Z,10.72
2023-01-15T06:10:07.520Z,10.69
2023-01-15T06:12:35.124Z,10.70
2023-01-15T06:15:02.810Z,10.51
2023-01-15T06:17:30.403Z,10.74
2023-01-15T06:19:57.959Z,10.81
2023-01-15T06:22:25.569Z,10.78
2023-01-15T06:24:54.465Z,10.83
2023-01-15T06:27:22.108Z,10.84
2023-01-15T06:29:49.679Z,10.83
2023-01-15T06:32:17.270Z,10.87
2023-01-15T06:34:44.849Z,10.86
2023-01-15T06:37:12.397Z,10.86
2023-01-15T06:39:40.006Z,10.90
2023-01-15T06:42:27.407Z,10.87
2023-01-15T06:45:13.299Z,10.86
2023-01-15T06:47:43.675Z,10.89
2023-01-15T06:50:12.211Z,10.90
2023-01-15T06:52:39.783Z,10.88
2023-01-15T06:55:08.358Z,10.90
2023-01-15T06:57:39.254Z,10.88
2023-01-15T07:00:07.789Z,10.89
2023-01-15T07:02:35.595Z,10.85
2023-01-15T07:05:03.230Z,10.87
2023-01-15T07:07:30.842Z,10.82
2023-01-15T07:09:58.534Z,10.89
2023-01-15T07:12:26.224Z,10.81
2023-01-15T07:14:55.143Z,10.83
2023-01-15T07:17:22.770Z,10.82
2023-01-15T07:19:50.341Z,10.83
2023-01-15T07:22:18.310Z,10.83
2023-01-15T07:24:45.884Z,10.85
2023-01-15T07:27:13.530Z,10.83
2023-01-15T07:29:41.097Z,10.81
2023-01-15T07:32:10.134Z,10.78
2023-01-15T07:34:37.759Z,10.80
2023-01-15T07:37:05.306Z,10.77
2023-01-15T07:39:32.886Z,10.74
2023-01-15T07:42:18.207Z,10.76
2023-01-15T07:45:03.627Z,10.73
2023-01-15T07:47:50.367Z,10.76
2023-01-15T07:50:23.409Z,10.70
2023-01-15T07:52:53.162Z,10.74
2023-01-15T07:55:21.189Z,10.78
2023-01-15T07:57:49.483Z,10.82
2023-01-15T08:00:20.495Z,10.81
2023-01-15T08:02:50.685Z,10.79
2023-01-15T08:05:18.498Z,10.82
2023-01-15T08:07:47.644Z,10.59
2023-01-15T08:10:15.693Z,10.49
2023-01-15T08:13:00.671Z,10.84
2023-01-15T08:15:30.526Z,10.81
2023-01-15T08:17:59.440Z,10.85
2023-01-15T08:20:27.410Z,10.90
2023-01-15T08:22:54.986Z,10.97
2023-01-15T08:27:56.945Z,10.87
2023-01-15T08:30:25.880Z,10.87
2023-01-15T08:32:53.743Z,10.88
2023-01-15T08:35:22.873Z,10.88
2023-01-15T08:37:50.906Z,10.79
2023-01-15T08:40:19.206Z,10.90
2023-01-15T08:42:47.023Z,10.86
2023-01-15T08:45:15.103Z,10.90
2023-01-15T08:47:42.841Z,10.88
2023-01-15T08:50:11.855Z,10.92
2023-01-15T08:52:41.382Z,10.94
2023-01-15T08:55:09.762Z,10.93
2023-01-15T08:57:38.528Z,10.94
2023-01-15T09:00:10.385Z,10.98
2023-01-15T09:02:38.185Z,10.91
2023-01-15T09:05:06.763Z,10.88
2023-01-15T09:07:35.405Z,10.89
2023-01-15T09:10:05.140Z,10.89
2023-01-15T09:12:32.924Z,10.89
2023-01-15T09:15:03.234Z,10.84
2023-01-15T09:17:31.861Z,10.91
2023-01-15T09:20:00.104Z,10.90
2023-01-15T09:22:30.854Z,10.89
2023-01-15T09:24:58.882Z,10.62
2023-01-15T09:27:28.103Z,10.91
2023-01-15T09:29:55.877Z,10.88
2023-01-15T09:32:25.081Z,10.84
2023-01-15T09:34:52.973Z,10.75
2023-01-15T09:37:20.830Z,10.74
2023-01-15T09:39:49.369Z,10.79
2023-01-15T09:42:29.512Z,10.80
2023-01-15T09:45:11.649Z,10.89
2023-01-15T09:48:07.835Z,11.17
2023-01-15T09:50:41.560Z,11.74
2023-01-15T09:53:19.274Z,11.84
2023-01-15T09:55:47.920Z,11.84
2023-01-15T09:58:19.127Z,11.55
2023-01-15T10:00:47.729Z,11.67
2023-01-15T10:03:26.897Z,11.70
2023-01-15T10:05:56.528Z,11.69
2023-01-15T10:08:25.836Z,11.78
2023-01-15T10:10:57.746Z,11.88
2023-01-15T10:13:30.054Z,12.02
2023-01-15T10:15:58.535Z,12.78
2023-01-15T10:18:28.174Z,12.81
2023-01-15T10:21:11.292Z,12.47
2023-01-15T10:23:40.813Z,12.30
2023-01-15T10:26:16.844Z,12.07
2023-01-15T10:29:04.574Z,11.95
2023-01-15T10:31:54.635Z,11.88
2023-01-15T10:34:44.341Z,11.67
2023-01-15T10:37:14.077Z,11.92
2023-01-15T10:39:44.938Z,11.90
2023-01-15T10:42:15.599Z,11.76
2023-01-15T10:44:47.091Z,11.85
2023-01-15T10:47:18.056Z,11.86
2023-01-15T10:49:46.582Z,11.83
2023-01-15T10:52:33.090Z,11.80
2023-01-15T10:55:04.792Z,11.90
2023-01-15T10:57:40.109Z,11.95
2023-01-15T11:00:11.954Z,11.98
2023-01-15T11:02:41.640Z,12.07
2023-01-15T11:05:13.556Z,12.18
2023-01-15T11:08:03.301Z,12.21
2023-01-15T11:10:30.851Z,12.23
2023-01-15T11:13:17.060Z,12.27
2023-01-15T11:16:05.402Z,12.25
2023-01-15T11:18:52.957Z,12.27
2023-01-15T11:21:22.714Z,12.35
2023-01-15T11:23:51.879Z,12.41
2023-01-15T11:26:21.621Z,12.40
2023-01-15T11:28:49.989Z,12.33
2023-01-15T11:31:19.211Z,12.22
2023-01-15T11:33:56.651Z,12.21
2023-01-15T11:36:25.334Z,12.16
2023-01-15T11:38:53.374Z,12.06
2023-01-15T11:41:49.640Z,11.94
2023-01-15T11:44:35.744Z,11.79
2023-01-15T11:47:22.631Z,11.89
2023-01-15T11:50:10.931Z,11.98
2023-01-15T11:52:38.932Z,11.91
2023-01-15T11:55:11.527Z,11.88
2023-01-15T11:57:39.640Z,11.74
2023-01-15T12:00:09.195Z,11.50
2023-01-15T12:02:40.487Z,11.64
2023-01-15T12:05:14.700Z,11.65
2023-01-15T12:07:42.794Z,11.68
2023-01-15T12:10:18.407Z,11.66
2023-01-15T12:12:57.030Z,11.63
2023-01-15T12:15:34.767Z,11.66
2023-01-15T12:18:30.915Z,11.69
2023-01-15T12:21:04.763Z,11.66
2023-01-15T12:23:55.875Z,11.65
2023-01-15T12:26:26.073Z,11.55
2023-01-15T12:28:59.098Z,11.58
2023-01-15T12:31:28.513Z,11.65
2023-01-15T12:33:59.432Z,11.67
2023-01-15T12:36:28.933Z,11.72
2023-01-15T12:38:58.652Z,11.73
2023-01-15T12:41:48.140Z,11.73
2023-01-15T12:44:36.069Z,11.75
2023-01-15T12:47:06.373Z,11.76
2023-01-15T12:49:36.642Z,11.73
2023-01-15T12:52:06.384Z,11.80
2023-01-15T12:54:37.106Z,11.90
2023-01-15T12:57:06.979Z,11.92
2023-01-15T12:59:37.009Z,12.10
2023-01-15T13:02:12.806Z,12.20
2023-01-15T13:04:45.368Z,12.25
2023-01-15T13:07:15.455Z,12.20
2023-01-15T13:09:45.660Z,12.15
2023-01-15T13:12:14.211Z,12.11
2023-01-15T13:14:42.814Z,12.09
2023-01-15T13:17:16.499Z,11.95
2023-01-15T13:19:49.517Z,12.00
2023-01-15T13:22:19.105Z,11.96
2023-01-15T13:25:12.656Z,11.95
2023-01-15T13:27:49.935Z,11.91
2023-01-15T13:30:25.264Z,11.85
2023-01-15T13:32:53.884Z,11.84
2023-01-15T13:35:28.298Z,11.77
2023-01-15T13:37:56.605Z,11.80
2023-01-15T13:40:25.806Z,11.75
2023-01-15T13:42:53.527Z,11.73
2023-01-15T13:45:27.479Z,11.52
2023-01-15T13:47:56.515Z,11.71
2023-01-15T13:50:28.927Z,11.66
2023-01-15T13:53:02.038Z,11.56
2023-01-15T13:55:31.775Z,11.47
2023-01-15T13:57:59.509Z,11.62
2023-01-15T14:00:29.225Z,11.62
2023-01-15T14:02:57.237Z,11.60
2023-01-15T14:05:31.314Z,11.51
2023-01-15T14:07:58.910Z,11.60
2023-01-15T14:10:38.544Z,11.63
2023-01-15T14:13:26.436Z,11.63
2023-01-15T14:15:56.237Z,11.63
2023-01-15T14:19:00.121Z,11.66
2023-01-15T14:21:32.474Z,11.61
2023-01-15T14:24:23.121Z,11.60
2023-01-15T14:26:54.068Z,11.56
2023-01-15T14:29:35.960Z,11.55
2023-01-15T14:32:06.332Z,11.47
2023-01-15T14:34:34.767Z,11.52
2023-01-15T14:37:04.741Z,11.52
2023-01-15T14:39:37.581Z,11.41
2023-01-15T14:42:26.583Z,11.48
2023-01-15T14:45:01.025Z,11.46
2023-01-15T14:47:32.098Z,11.45
2023-01-15T14:50:24.849Z,11.55
2023-01-15T14:52:54.615Z,11.50
2023-01-15T14:55:22.402Z,11.48
2023-01-15T14:57:55.104Z,11.47
2023-01-15T15:00:22.842Z,11.43
2023-01-15T15:02:50.563Z,11.40
2023-01-15T15:05:19.561Z,11.33
2023-01-15T15:07:48.876Z,11.16
2023-01-15T15:10:22.556Z,11.11
2023-01-15T15:12:52.972Z,11.29
2023-01-15T15:15:24.245Z,11.27
2023-01-15T15:17:58.778Z,11.03
2023-01-15T15:20:31.421Z,11.28
2023-01-15T15:23:04.832Z,11.20
2023-01-15T15:25:34.676Z,11.21
2023-01-15T15:28:04.030Z,11.34
2023-01-15T15:30:33.098Z,11.30
2023-01-15T15:33:00.738Z,11.10
2023-01-15T15:35:29.457Z,11.27
2023-01-15T15:37:57.079Z,11.13
2023-01-15T15:40:30.526Z,11.20
2023-01-15T15:43:23.999Z,11.27
2023-01-15T15:46:10.544Z,11.31
2023-01-15T15:48:45.453Z,11.27
2023-01-15T15:51:25.801Z,11.24
2023-01-15T15:54:04.414Z,11.32
2023-01-15T15:56:32.401Z,11.17
2023-01-15T15:59:01.421Z,11.30
2023-01-15T16:01:29.118Z,11.33
2023-01-15T16:03:56.863Z,11.25
2023-01-15T16:06:25.918Z,11.28
2023-01-15T16:08:53.741Z,11.29
2023-01-15T16:11:21.911Z,11.22
2023-01-15T16:13:52.704Z,11.21
2023-01-15T16:16:21.867Z,11.20
2023-01-15T16:18:55.425Z,11.20
2023-01-15T16:21:25.395Z,11.25
2023-01-15T16:23:59.372Z,11.24
2023-01-15T16:26:31.808Z,11.31
2023-01-15T16:29:00.489Z,11.28
2023-01-15T16:31:33.921Z,11.30
2023-01-15T16:34:01.732Z,11.22
2023-01-15T16:36:29.630Z,11.32
2023-01-15T16:38:57.196Z,11.23
2023-01-15T16:41:27.767Z,11.17
2023-01-15T16:43:59.125Z,11.23
2023-01-15T16:46:29.693Z,11.25
2023-01-15T16:49:25.478Z,11.22
2023-01-15T16:51:53.236Z,11.17
2023-01-15T16:54:44.381Z,11.19
2023-01-15T16:57:34.577Z,11.17
2023-01-15T17:00:05.202Z,11.17
2023-01-15T17:02:44.179Z,11.11
2023-01-15T17:05:29.709Z,11.05
2023-01-15T17:07:57.969Z,11.17
2023-01-15T17:10:27.107Z,11.14
2023-01-15T17:12:56.305Z,11.01
2023-01-15T17:15:45.015Z,11.15
2023-01-15T17:18:37.654Z,11.18
2023-01-15T17:21:05.528Z,11.11
2023-01-15T17:23:36.486Z,11.15
2023-01-15T17:26:04.607Z,11.13
2023-01-15T17:28:32.460Z,11.17
2023-01-15T17:31:01.702Z,11.00
2023-01-15T17:33:29.513Z,11.10
2023-01-15T17:36:01.231Z,11.01
2023-01-15T17:38:29.424Z,11.02
2023-01-15T17:41:00.239Z,11.06
2023-01-15T17:43:28.118Z,11.01
2023-01-15T17:45:55.721Z,11.00
2023-01-15T17:48:23.452Z,10.96
2023-01-15T17:50:51.044Z,10.85
2023-01-15T17:53:20.421Z,10.93
2023-01-15T17:56:05.496Z,10.94
2023-01-15T17:58:50.767Z,10.90
2023-01-15T18:01:36.636Z,10.84
2023-01-15T18:04:21.751Z,10.83
2023-01-15T18:06:50.828Z,10.86
2023-01-15T18:09:20.289Z,10.83
2023-01-15T18:11:48.106Z,10.87
2023-01-15T18:14:15.780Z,10.87
2023-01-15T18:16:43.472Z,10.84
2023-01-15T18:19:11.248Z,10.86
2023-01-15T18:21:39.973Z,10.82
2023-01-15T18:24:09.333Z,10.87
2023-01-15T18:26:39.445Z,10.85
2023-01-15T18:29:07.372Z,10.62
2023-01-15T18:31:35.113Z,10.84
2023-01-15T18:34:02.943Z,10.89
2023-01-15T18:36:30.612Z,10.90
2023-01-15T18:39:02.686Z,10.83
2023-01-15T18:41:47.272Z,10.86
2023-01-15T18:44:40.225Z,10.85
2023-01-15T18:47:12.070Z,10.86
2023-01-15T18:49:40.172Z,10.89
2023-01-15T18:52:25.733Z,10.85
2023-01-15T18:54:53.477Z,10.80
2023-01-15T18:57:21.257Z,10.62
2023-01-15T18:59:50.565Z,10.74
2023-01-15T19:02:18.628Z,10.74
2023-01-15T19:04:46.300Z,10.80
2023-01-15T19:07:14.514Z,10.74
2023-01-15T19:09:42.262Z,10.80
2023-01-15T19:12:10.286Z,10.86
2023-01-15T19:14:55.579Z,10.80
2023-01-15T19:17:43.318Z,10.78
2023-01-15T19:20:12.144Z,10.74
2023-01-15T19:22:59.216Z,10.75
2023-01-15T19:25:27.140Z,10.76
2023-01-15T19:27:55.436Z,10.76
2023-01-15T19:30:23.225Z,10.44
2023-01-15T19:32:52.443Z,10.75
2023-01-15T19:35:20.228Z,10.70
2023-01-15T19:37:48.586Z,10.52
2023-01-15T19:40:18.223Z,10.78
2023-01-15T19:43:03.337Z,10.76
2023-01-15T19:45:48.545Z,10.69
2023-01-15T19:48:35.426Z,10.67
2023-01-15T19:51:03.427Z,10.30
2023-01-15T19:53:31.311Z,10.58
2023-01-15T19:55:58.932Z,10.59
2023-01-15T19:58:26.805Z,10.56
2023-01-15T20:00:54.804Z,10.56
2023-01-15T20:03:23.862Z,10.48
2023-01-15T20:05:51.757Z,10.56
2023-01-15T20:08:19.648Z,10.56
2023-01-15T20:10:48.637Z,10.56
2023-01-15T20:13:34.734Z,10.52
2023-01-15T20:16:10.258Z,10.53
2023-01-15T20:18:39.453Z,10.50
2023-01-15T20:21:07.523Z,10.57
2023-01-15T20:23:36.632Z,10.55
2023-01-15T20:26:05.218Z,10.58
2023-01-15T20:28:33.517Z,10.62
2023-01-15T20:31:01.333Z,10.64
2023-01-15T20:33:29.175Z,10.64
2023-01-15T20:35:58.200Z,10.60
2023-01-15T20:38:26.236Z,10.27
2023-01-15T20:40:54.378Z,10.58
2023-01-15T20:43:41.567Z,10.59
2023-01-15T20:46:11.081Z,10.51
2023-01-15T20:48:56.542Z,10.51
2023-01-15T20:51:25.931Z,10.40
2023-01-15T20:53:53.662Z,10.52
2023-01-15T20:56:21.363Z,10.49
2023-01-15T20:58:49.976Z,10.46
2023-01-15T21:01:18.271Z,10.41
2023-01-15T21:03:46.838Z,10.47
2023-01-15T21:06:14.785Z,10.42
2023-01-15T21:08:44.680Z,10.40
2023-01-15T21:11:12.445Z,10.42
2023-01-15T21:13:44.673Z,10.41
2023-01-15T21:16:13.770Z,10.24
2023-01-15T21:18:43.264Z,10.36
2023-01-15T21:21:22.110Z,10.36
2023-01-15T21:23:51.193Z,10.35
2023-01-15T21:26:19.011Z,10.36
2023-01-15T21:28:46.665Z,10.24
2023-01-15T21:31:16.983Z,10.29
2023-01-15T21:33:45.715Z,10.43
2023-01-15T21:36:14.208Z,10.22
2023-01-15T21:38:41.978Z,10.46
2023-01-15T21:41:13.210Z,10.30
2023-01-15T21:43:58.628Z,10.11
2023-01-15T21:46:27.726Z,10.17
2023-01-15T21:48:55.477Z,10.24
2023-01-15T21:51:23.173Z,10.13
2023-01-15T21:53:50.915Z,10.06
2023-01-15T21:56:19.864Z,10.07
2023-01-15T21:58:47.667Z,9.90
2023-01-15T22:01:17.953Z,9.96
2023-01-15T22:03:46.234Z,9.82
2023-01-15T22:06:14.018Z,9.81
2023-01-15T22:08:42.815Z,9.75
2023-01-15T22:11:14.441Z,9.66
2023-01-15T22:13:44.266Z,9.61
2023-01-15T22:16:12.036Z,9.52
2023-01-15T22:18:41.606Z,9.33
2023-01-15T22:21:14.875Z,9.50
2023-01-15T22:23:43.062Z,9.53
2023-01-15T22:26:17.336Z,9.50
2023-01-15T22:28:46.689Z,9.48
2023-01-15T22:31:17.605Z,9.49
2023-01-15T22:33:45.284Z,9.51
2023-01-15T22:36:14.657Z,9.47
2023-01-15T22:38:44.361Z,9.49
2023-01-15T22:41:12.563Z,9.49
2023-01-15T22:43:40.250Z,9.47
2023-01-15T22:46:13.147Z,8.45
2023-01-15T22:48:40.802Z,9.38
2023-01-15T22:51:08.484Z,9.36
2023-01-15T22:53:36.996Z,9.38
2023-01-15T22:56:05.193Z,9.43
2023-01-15T22:58:32.829Z,9.44
2023-01-15T23:01:00.725Z,9.38
2023-01-15T23:03:29.937Z,9.42
2023-01-15T23:05:57.679Z,9.42
2023-01-15T23:08:26.645Z,9.45
2023-01-15T23:10:54.895Z,9.52
2023-01-15T23:13:22.517Z,9.53
2023-01-15T23:15:57.225Z,9.51
2023-01-15T23:18:24.874Z,9.37
2023-01-15T23:20:54.024Z,9.54
2023-01-15T23:23:21.659Z,9.51
2023-01-15T23:25:50.047Z,9.56
2023-01-15T23:28:17.776Z,9.63
2023-01-15T23:30:47.584Z,9.52
2023-01-15T23:33:15.543Z,9.66
2023-01-15T23:35:43.281Z,9.53
2023-01-15T23:38:12.261Z,9.39
2023-01-15T23:40:41.398Z,9.24
2023-01-15T23:43:27.999Z,9.52
2023-01-15T23:46:13.451Z,9.43
2023-01-15T23:51:08.822Z,9.52
2023-01-15T23:53:37.762Z,9.47
2023-01-15T23:56:06.226Z,9.15
2023-01-15T23:58:33.854Z,9.47
